TimeCDT,TemperatureF,Dew PointF,Humidity,Sea Level PressureIn,VisibilityMPH,Wind Direction,Wind SpeedMPH,Gust SpeedMPH,PrecipitationIn,Events,Conditions,WindDirDegrees,DateUTC
12:53 AM,79.0,75.0,88,29.93,10.0,SSE,9.2,-,N/A,,Clear,150,2012-10-22 05:53:00
1:53 AM,80.1,75.0,85,29.92,10.0,SSE,11.5,17.3,N/A,,Clear,150,2012-10-22 06:53:00
2:53 AM,80.1,75.9,87,29.92,9.0,SSE,9.2,-,N/A,,Mostly Cloudy,150,2012-10-22 07:53:00
3:53 AM,80.1,75.0,85,29.91,10.0,SSE,9.2,-,N/A,,Mostly Cloudy,150,2012-10-22 08:53:00
4:00 AM,80.6,75.2,84,29.91,10.0,SSE,10.4,18.4,N/A,,Scattered Clouds,150,2012-10-22 09:00:00
4:53 AM,79.0,75.0,88,29.91,9.0,SSE,9.2,-,N/A,,Partly Cloudy,150,2012-10-22 09:53:00
5:30 AM,80.6,75.2,84,29.91,9.0,SSE,9.2,-,N/A,,Mostly Cloudy,150,2012-10-22 10:30:00
5:38 AM,80.6,75.2,84,29.90,9.0,SSE,11.5,16.1,N/A,,Scattered Clouds,150,2012-10-22 10:38:00
5:53 AM,80.1,75.0,85,29.91,9.0,SSE,11.5,-,N/A,,Mostly Cloudy,150,2012-10-22 10:53:00
6:53 AM,80.1,75.0,85,29.92,9.0,SSE,12.7,20.7,N/A,,Mostly Cloudy,160,2012-10-22 11:53:00
7:00 AM,78.8,75.2,89,29.92,6.0,South,8.1,20.7,0.00,Rain,Light Rain,180,2012-10-22 12:00:00
7:25 AM,78.8,75.2,89,29.93,8.0,South,8.1,-,0.00,Rain,Light Rain,170,2012-10-22 12:25:00
8:53 AM,81.0,75.0,82,29.94,10.0,SE,12.7,18.4,0.00,,Scattered Clouds,140,2012-10-22 13:53:00
9:53 AM,82.9,73.9,74,29.96,10.0,SE,15.0,21.9,N/A,,Partly Cloudy,140,2012-10-22 14:53:00
10:53 AM,84.0,73.0,69,29.97,10.0,SE,17.3,25.3,N/A,,Scattered Clouds,140,2012-10-22 15:53:00
11:53 AM,86.0,72.0,63,29.98,10.0,SSE,16.1,24.2,N/A,,Scattered Clouds,150,2012-10-22 16:53:00
12:53 PM,86.0,72.0,63,29.97,10.0,SSE,11.5,23.0,N/A,,Mostly Cloudy,150,2012-10-22 17:53:00
1:53 PM,87.1,72.0,61,29.94,10.0,SSE,16.1,25.3,N/A,,Partly Cloudy,150,2012-10-22 18:53:00
2:53 PM,86.0,72.0,63,29.93,10.0,SE,16.1,21.9,N/A,,Partly Cloudy,140,2012-10-22 19:53:00
3:14 PM,87.8,71.6,58,29.92,1.5,SE,16.1,24.2,N/A,,Haze,140,2012-10-22 20:14:00
3:18 PM,87.8,71.6,58,29.92,0.8,SE,18.4,24.2,N/A,,Haze,140,2012-10-22 20:18:00
3:25 PM,86.0,71.6,62,29.92,1.2,SE,17.3,24.2,0.00,Rain,Light Rain,140,2012-10-22 20:25:00
3:31 PM,86.0,71.6,62,29.91,2.5,SE,18.4,25.3,0.00,,Haze,140,2012-10-22 20:31:00
3:38 PM,86.0,71.6,62,29.91,10.0,SE,16.1,25.3,0.00,,Scattered Clouds,140,2012-10-22 20:38:00
3:53 PM,84.9,72.0,65,29.92,10.0,SE,20.7,-,0.00,,Partly Cloudy,140,2012-10-22 20:53:00
4:53 PM,84.9,72.0,65,29.92,10.0,SE,18.4,25.3,N/A,,Partly Cloudy,140,2012-10-22 21:53:00
5:53 PM,82.9,72.0,69,29.93,10.0,SE,17.3,-,N/A,,Clear,140,2012-10-22 22:53:00
6:53 PM,81.0,71.1,72,29.92,10.0,SE,17.3,23.0,N/A,,Clear,130,2012-10-22 23:53:00
7:53 PM,80.1,72.0,76,29.94,10.0,SE,15.0,-,N/A,,Clear,130,2012-10-23 00:53:00
8:53 PM,80.1,71.1,74,29.95,10.0,SE,16.1,-,N/A,,Clear,130,2012-10-23 01:53:00
9:53 PM,79.0,71.1,77,29.95,10.0,SE,19.6,23.0,N/A,,Clear,130,2012-10-23 02:53:00
10:53 PM,79.0,71.1,77,29.96,10.0,SE,13.8,-,N/A,,Clear,140,2012-10-23 03:53:00